createdAt,value
2018-12-14T00:00:17.543Z,12.80
2018-12-14T00:02:44.751Z,14.00
2018-12-14T00:05:12.096Z,11.75
2018-12-14T00:07:39.318Z,12.40
2018-12-14T00:10:07.783Z,11.55
2018-12-14T00:12:35.200Z,13.58
2018-12-14T00:15:03.228Z,12.60
2018-12-14T00:17:30.445Z,13.03
2018-12-14T00:19:57.780Z,13.15
2018-12-14T00:22:25.009Z,12.40
2018-12-14T00:24:52.225Z,11.65
2018-12-14T00:27:19.576Z,12.50
2018-12-14T00:29:46.913Z,12.93
2018-12-14T00:32:14.763Z,12.07
2018-12-14T00:34:42.091Z,13.13
2018-12-14T00:37:09.325Z,12.07
2018-12-14T00:39:36.544Z,12.10
2018-12-14T00:42:03.768Z,12.53
2018-12-14T00:44:30.975Z,13.43
2018-12-14T00:46:58.196Z,11.85
2018-12-14T00:49:25.410Z,13.95
2018-12-14T00:51:52.639Z,13.13
2018-12-14T00:54:19.839Z,14.15
2018-12-14T00:56:47.159Z,12.25
2018-12-14T00:59:14.380Z,14.10
2018-12-14T01:01:41.610Z,13.55
2018-12-14T01:04:08.822Z,13.13
2018-12-14T01:06:36.177Z,11.45
2018-12-14T01:09:05.008Z,12.75
2018-12-14T01:11:32.267Z,13.13
2018-12-14T01:13:59.472Z,12.82
2018-12-14T01:16:26.708Z,13.53
2018-12-14T01:18:54.048Z,12.68
2018-12-14T01:21:21.291Z,12.43
2018-12-14T01:23:48.505Z,12.30
2018-12-14T01:26:15.848Z,13.03
2018-12-14T01:28:43.071Z,14.98
2018-12-14T01:31:10.284Z,12.55
2018-12-14T01:33:37.509Z,12.23
2018-12-14T01:36:04.715Z,15.00
2018-12-14T01:38:31.953Z,11.50
2018-12-14T01:40:59.169Z,11.93
2018-12-14T01:43:26.427Z,19.25
2018-12-14T01:45:53.635Z,12.40
2018-12-14T01:48:20.970Z,13.95
2018-12-14T01:50:48.176Z,12.88
2018-12-14T01:53:15.368Z,12.73
2018-12-14T01:55:42.563Z,12.98
2018-12-14T01:58:09.776Z,13.78
2018-12-14T02:00:37.084Z,11.75
2018-12-14T02:03:04.291Z,12.40
2018-12-14T02:05:31.588Z,12.70
2018-12-14T02:07:58.795Z,11.68
2018-12-14T02:10:25.984Z,13.40
2018-12-14T02:12:53.295Z,11.85
2018-12-14T02:15:20.592Z,13.25
2018-12-14T02:17:48.074Z,12.53
2018-12-14T02:20:15.308Z,11.93
2018-12-14T02:22:42.497Z,11.78
2018-12-14T02:25:09.813Z,13.18
2018-12-14T02:27:37.000Z,12.63
2018-12-14T02:30:15.769Z,13.20
2018-12-14T02:32:42.948Z,13.05
2018-12-14T02:35:10.145Z,12.98
2018-12-14T02:37:37.321Z,10.63
2018-12-14T02:40:04.637Z,13.20
2018-12-14T02:42:31.978Z,13.20
2018-12-14T02:44:59.173Z,13.15
2018-12-14T02:47:26.355Z,12.25
2018-12-14T02:49:53.539Z,12.60
2018-12-14T02:52:20.768Z,14.10
2018-12-14T02:54:47.989Z,12.58
2018-12-14T02:57:15.205Z,13.55
2018-12-14T02:59:42.422Z,14.28
2018-12-14T03:02:09.798Z,12.73
2018-12-14T03:04:37.125Z,12.10
2018-12-14T03:07:04.353Z,14.63
2018-12-14T03:09:31.704Z,12.37
2018-12-14T03:11:58.916Z,15.00
2018-12-14T03:14:26.359Z,11.90
2018-12-14T03:16:53.702Z,15.20
2018-12-14T03:19:20.912Z,13.65
2018-12-14T03:21:48.120Z,12.60
2018-12-14T03:24:15.326Z,13.10
2018-12-14T03:26:42.552Z,12.20
2018-12-14T03:29:09.875Z,12.35
2018-12-14T03:31:37.097Z,13.20
2018-12-14T03:34:04.405Z,11.85
2018-12-14T03:36:31.774Z,11.08
2018-12-14T03:38:59.103Z,15.25
2018-12-14T03:41:26.337Z,12.35
2018-12-14T03:43:53.553Z,14.47
2018-12-14T03:46:20.797Z,13.38
2018-12-14T03:48:48.014Z,13.05
2018-12-14T03:51:17.368Z,12.90
2018-12-14T03:53:44.768Z,12.85
2018-12-14T03:56:11.961Z,13.03
2018-12-14T03:58:39.267Z,13.60
2018-12-14T04:01:06.593Z,12.68
2018-12-14T04:03:33.779Z,16.50
2018-12-14T04:06:01.087Z,15.60
2018-12-14T04:08:28.284Z,12.45
2018-12-14T04:10:55.480Z,12.05
2018-12-14T04:13:22.682Z,14.75
2018-12-14T04:15:49.874Z,13.83
2018-12-14T04:18:17.075Z,15.25
2018-12-14T04:20:44.317Z,12.23
2018-12-14T04:23:11.617Z,13.08
2018-12-14T04:25:38.916Z,14.25
2018-12-14T04:28:06.229Z,14.25
2018-12-14T04:30:33.544Z,14.50
2018-12-14T04:33:00.844Z,14.85
2018-12-14T04:35:28.021Z,13.98
2018-12-14T04:37:55.226Z,15.32
2018-12-14T04:40:22.519Z,15.60
2018-12-14T04:42:49.840Z,15.10
2018-12-14T04:45:17.057Z,15.28
2018-12-14T04:47:44.369Z,12.93
2018-12-14T04:50:11.688Z,14.63
2018-12-14T04:52:39.036Z,14.85
2018-12-14T04:55:06.369Z,13.60
2018-12-14T04:57:33.597Z,14.00
2018-12-14T05:00:00.825Z,12.05
2018-12-14T05:02:28.029Z,14.53
2018-12-14T05:04:55.253Z,12.23
2018-12-14T05:07:22.464Z,13.38
2018-12-14T05:09:49.685Z,13.95
2018-12-14T05:12:16.963Z,13.38
2018-12-14T05:14:44.603Z,14.53
2018-12-14T05:17:11.820Z,13.20
2018-12-14T05:19:39.043Z,15.18
2018-12-14T05:22:06.259Z,13.83
2018-12-14T05:24:33.544Z,14.15
2018-12-14T05:27:01.108Z,13.15
2018-12-14T05:29:28.328Z,12.40
2018-12-14T05:31:55.669Z,13.35
2018-12-14T05:34:22.908Z,13.68
2018-12-14T05:36:50.123Z,13.00
2018-12-14T05:39:17.372Z,12.93
2018-12-14T05:41:44.583Z,13.70
2018-12-14T05:44:11.817Z,12.25
2018-12-14T05:46:39.152Z,27.48
2018-12-14T05:49:06.484Z,15.35
2018-12-14T05:51:37.059Z,15.65
2018-12-14T05:54:04.480Z,16.25
2018-12-14T05:56:31.917Z,16.93
2018-12-14T05:58:59.149Z,15.23
2018-12-14T06:01:26.396Z,14.33
2018-12-14T06:03:54.149Z,14.40
2018-12-14T06:06:21.503Z,16.48
2018-12-14T06:08:48.836Z,15.75
2018-12-14T06:11:16.305Z,14.50
2018-12-14T06:13:43.529Z,18.73
2018-12-14T06:16:10.748Z,16.67
2018-12-14T06:18:37.961Z,17.75
2018-12-14T06:21:05.185Z,14.95
2018-12-14T06:23:32.396Z,15.10
2018-12-14T06:25:59.768Z,18.98
2018-12-14T06:28:27.207Z,18.62
2018-12-14T06:30:54.430Z,21.55
2018-12-14T06:33:21.633Z,16.73
2018-12-14T06:35:48.868Z,14.58
2018-12-14T06:38:16.081Z,16.73
2018-12-14T06:40:43.313Z,15.30
2018-12-14T06:43:15.431Z,15.23
2018-12-14T06:45:39.763Z,13.60
2018-12-14T06:48:07.060Z,14.05
2018-12-14T06:50:34.414Z,13.85
2018-12-14T06:53:01.801Z,15.90
2018-12-14T06:55:29.002Z,15.25
2018-12-14T06:57:56.301Z,14.63
2018-12-14T07:00:23.520Z,14.75
2018-12-14T07:02:50.713Z,13.32
2018-12-14T07:05:17.909Z,14.03
2018-12-14T07:07:45.110Z,13.28
2018-12-14T07:10:12.532Z,14.93
2018-12-14T07:12:40.795Z,14.23
2018-12-14T07:15:08.461Z,14.25
2018-12-14T07:17:35.768Z,16.07
2018-12-14T07:20:04.194Z,14.40
2018-12-14T07:22:31.384Z,17.10
2018-12-14T07:24:58.568Z,14.98
2018-12-14T07:27:25.875Z,13.60
2018-12-14T07:29:53.062Z,14.20
2018-12-14T07:32:20.269Z,14.05
2018-12-14T07:34:47.562Z,16.67
2018-12-14T07:37:14.759Z,13.95
2018-12-14T07:39:41.939Z,16.07
2018-12-14T07:42:09.253Z,16.02
2018-12-14T07:44:36.575Z,17.62
2018-12-14T07:47:04.064Z,15.30
2018-12-14T07:49:31.314Z,14.05
2018-12-14T07:51:58.523Z,13.53
2018-12-14T07:54:25.713Z,15.30
2018-12-14T07:56:53.015Z,14.58
2018-12-14T07:59:20.349Z,15.10
2018-12-14T08:01:47.537Z,14.10
2018-12-14T08:04:14.865Z,16.20
2018-12-14T08:06:42.057Z,11.57
2018-12-14T08:09:09.672Z,13.08
2018-12-14T08:11:36.863Z,13.40
2018-12-14T08:14:04.168Z,11.80
2018-12-14T08:16:31.344Z,15.23
2018-12-14T08:18:58.527Z,14.47
2018-12-14T08:21:25.730Z,14.70
2018-12-14T08:23:53.044Z,13.60
2018-12-14T08:26:20.253Z,13.65
2018-12-14T08:28:47.448Z,14.20
2018-12-14T08:31:31.091Z,14.05
2018-12-14T08:33:58.283Z,16.90
2018-12-14T08:36:25.695Z,16.52
2018-12-14T08:38:52.896Z,14.85
2018-12-14T08:41:20.083Z,15.10
2018-12-14T08:43:47.281Z,15.00
2018-12-14T08:46:14.463Z,15.45
2018-12-14T08:48:41.700Z,15.10
2018-12-14T08:51:09.139Z,17.40
2018-12-14T08:53:36.788Z,16.17
2018-12-14T08:56:04.120Z,15.58
2018-12-14T08:58:31.705Z,15.40
2018-12-14T09:00:58.927Z,15.88
2018-12-14T09:03:26.229Z,13.08
2018-12-14T09:05:53.596Z,14.15
2018-12-14T09:08:20.852Z,12.07
2018-12-14T09:10:48.085Z,13.25
2018-12-14T09:13:15.441Z,13.50
2018-12-14T09:15:42.709Z,15.10
2018-12-14T09:18:10.033Z,14.03
2018-12-14T09:20:37.251Z,13.93
2018-12-14T09:23:04.717Z,14.20
2018-12-14T09:25:31.939Z,13.40
2018-12-14T09:27:59.147Z,13.85
2018-12-14T09:30:26.388Z,13.88
2018-12-14T09:32:53.595Z,13.65
2018-12-14T09:35:20.823Z,13.70
2018-12-14T09:37:48.040Z,11.88
2018-12-14T09:40:15.269Z,14.30
2018-12-14T09:42:42.487Z,15.08
2018-12-14T09:45:09.720Z,19.95
2018-12-14T09:47:36.926Z,13.75
2018-12-14T09:50:04.375Z,14.00
2018-12-14T09:52:31.582Z,13.65
2018-12-14T09:54:58.766Z,12.55
2018-12-14T09:57:25.965Z,13.18
2018-12-14T09:59:53.151Z,14.28
2018-12-14T10:02:20.350Z,14.55
2018-12-14T10:04:47.583Z,14.47
2018-12-14T10:07:14.910Z,13.58
2018-12-14T10:09:42.098Z,14.40
2018-12-14T10:12:09.296Z,12.90
2018-12-14T10:14:36.481Z,13.55
2018-12-14T10:17:03.794Z,14.18
2018-12-14T10:19:30.979Z,13.98
2018-12-14T10:21:58.180Z,12.10
2018-12-14T10:24:25.364Z,12.88
2018-12-14T10:26:52.583Z,14.58
2018-12-14T10:29:19.883Z,13.00
2018-12-14T10:31:47.073Z,18.45
2018-12-14T10:34:14.248Z,15.70
2018-12-14T10:36:41.454Z,13.40
2018-12-14T10:39:08.869Z,13.50
2018-12-14T10:41:36.162Z,12.30
2018-12-14T10:44:07.368Z,15.32
2018-12-14T10:46:32.680Z,13.72
2018-12-14T10:48:59.884Z,13.25
2018-12-14T10:51:27.586Z,11.55
2018-12-14T10:53:54.804Z,13.85
2018-12-14T10:56:22.060Z,12.47
2018-12-14T10:58:49.296Z,12.98
2018-12-14T11:01:22.197Z,15.08
2018-12-14T11:03:49.411Z,13.48
2018-12-14T11:06:16.692Z,12.60
2018-12-14T11:08:43.933Z,14.00
2018-12-14T11:11:11.147Z,14.05
2018-12-14T11:13:38.373Z,15.78
2018-12-14T11:16:05.579Z,14.10
2018-12-14T11:18:32.880Z,13.88
2018-12-14T11:21:00.099Z,13.62
2018-12-14T11:23:27.308Z,15.15
2018-12-14T11:25:54.530Z,14.00
2018-12-14T11:28:21.752Z,15.00
2018-12-14T11:30:49.264Z,13.48
2018-12-14T11:33:16.607Z,12.95
2018-12-14T11:35:43.825Z,13.80
2018-12-14T11:38:11.059Z,12.37
2018-12-14T11:40:38.396Z,13.15
2018-12-14T11:43:05.620Z,11.97
2018-12-14T11:45:32.830Z,12.45
2018-12-14T11:48:00.054Z,13.13
2018-12-14T11:50:27.366Z,12.10
2018-12-14T11:52:54.572Z,11.93
2018-12-14T11:55:21.764Z,12.35
2018-12-14T11:57:48.955Z,13.53
2018-12-14T12:00:16.378Z,12.37
2018-12-14T12:02:43.703Z,14.10
2018-12-14T12:05:11.099Z,14.95
2018-12-14T12:07:39.527Z,13.32
2018-12-14T12:10:08.724Z,13.28
2018-12-14T12:12:36.156Z,13.00
2018-12-14T12:15:03.575Z,13.88
2018-12-14T12:17:31.379Z,14.70
2018-12-14T12:19:58.564Z,12.98
2018-12-14T12:22:25.769Z,13.35
2018-12-14T12:24:52.964Z,13.65
2018-12-14T12:27:20.152Z,14.73
2018-12-14T12:29:47.350Z,13.55
2018-12-14T12:32:14.541Z,14.68
2018-12-14T12:34:41.730Z,13.20
2018-12-14T12:37:08.984Z,14.35
2018-12-14T12:39:36.176Z,14.05
2018-12-14T12:42:03.475Z,16.07
2018-12-14T12:44:33.715Z,14.45
2018-12-14T12:47:00.076Z,15.25
2018-12-14T12:49:27.394Z,13.35
2018-12-14T12:51:54.589Z,15.40
2018-12-14T12:54:21.767Z,13.58
2018-12-14T12:56:48.965Z,15.10
2018-12-14T12:59:16.159Z,12.60
2018-12-14T13:01:43.370Z,12.65
2018-12-14T13:04:10.577Z,14.13
2018-12-14T13:06:37.881Z,13.15
2018-12-14T13:09:05.652Z,14.10
2018-12-14T13:11:32.955Z,13.68
2018-12-14T13:14:00.127Z,13.20
2018-12-14T13:16:27.373Z,13.38
2018-12-14T13:18:54.559Z,12.90
2018-12-14T13:21:21.761Z,17.15
2018-12-14T13:23:48.947Z,12.43
2018-12-14T13:26:16.148Z,12.37
2018-12-14T13:28:43.328Z,11.38
2018-12-14T13:31:10.643Z,13.38
2018-12-14T13:33:37.965Z,14.10
2018-12-14T13:36:05.571Z,14.58
2018-12-14T13:38:32.896Z,11.75
2018-12-14T13:41:00.076Z,12.37
2018-12-14T13:43:27.260Z,12.98
2018-12-14T13:45:54.647Z,11.63
2018-12-14T13:48:22.022Z,12.25
2018-12-14T13:50:49.549Z,13.50
2018-12-14T13:53:16.761Z,13.95
2018-12-14T13:55:44.015Z,13.70
2018-12-14T13:58:11.227Z,13.55
2018-12-14T14:00:38.617Z,14.33
2018-12-14T14:03:05.821Z,15.13
2018-12-14T14:05:33.140Z,13.30
2018-12-14T14:08:00.560Z,11.30
2018-12-14T14:10:27.927Z,12.70
2018-12-14T14:12:55.233Z,13.08
2018-12-14T14:15:22.680Z,13.80
2018-12-14T14:17:49.952Z,14.87
2018-12-14T14:20:17.275Z,13.20
2018-12-14T14:22:44.496Z,16.27
2018-12-14T14:25:17.337Z,12.40
2018-12-14T14:27:41.059Z,12.25
2018-12-14T14:30:08.499Z,19.77
2018-12-14T14:32:35.719Z,22.02
2018-12-14T14:35:03.197Z,26.93
2018-12-14T14:37:30.530Z,22.10
2018-12-14T14:39:57.756Z,15.68
2018-12-14T14:42:25.089Z,13.13
2018-12-14T14:44:52.315Z,11.57
2018-12-14T14:47:19.540Z,12.03
2018-12-14T14:49:46.778Z,12.63
2018-12-14T14:52:13.975Z,16.75
2018-12-14T14:54:41.167Z,14.18
2018-12-14T14:57:08.357Z,19.30
2018-12-14T14:59:35.540Z,13.43
2018-12-14T15:02:02.840Z,16.10
2018-12-14T15:04:30.011Z,16.07
2018-12-14T15:06:57.314Z,12.13
2018-12-14T15:09:24.517Z,18.30
2018-12-14T15:11:51.811Z,13.85
2018-12-14T15:14:18.996Z,14.87
2018-12-14T15:16:46.171Z,19.55
2018-12-14T15:19:13.365Z,15.13
2018-12-14T15:21:40.771Z,15.88
2018-12-14T15:24:07.964Z,15.80
2018-12-14T15:26:35.139Z,15.98
2018-12-14T15:29:02.450Z,12.15
2018-12-14T15:31:29.643Z,13.30
2018-12-14T15:33:56.956Z,13.95
2018-12-14T15:36:24.340Z,15.35
2018-12-14T15:38:51.532Z,15.05
2018-12-14T15:41:18.723Z,15.30
2018-12-14T15:43:46.029Z,16.12
2018-12-14T15:46:13.220Z,16.42
2018-12-14T15:48:40.418Z,16.73
2018-12-14T15:51:07.652Z,18.15
2018-12-14T15:53:34.888Z,17.05
2018-12-14T15:56:02.103Z,15.80
2018-12-14T15:58:29.317Z,15.85
2018-12-14T16:00:56.545Z,14.80
2018-12-14T16:03:23.768Z,16.42
2018-12-14T16:05:50.990Z,15.75
2018-12-14T16:08:18.324Z,16.45
2018-12-14T16:10:45.559Z,20.02
2018-12-14T16:13:12.773Z,18.87
2018-12-14T16:15:39.988Z,17.87
2018-12-14T16:18:07.204Z,20.62
2018-12-14T16:20:34.466Z,17.70
2018-12-14T16:23:01.680Z,14.00
2018-12-14T16:25:29.072Z,16.95
2018-12-14T16:27:56.300Z,14.58
2018-12-14T16:30:23.529Z,15.28
2018-12-14T16:32:50.740Z,14.25
2018-12-14T16:35:17.974Z,14.35
2018-12-14T16:37:45.425Z,14.38
2018-12-14T16:40:12.725Z,15.05
2018-12-14T16:42:39.973Z,13.53
2018-12-14T16:45:07.657Z,15.15
2018-12-14T16:47:34.867Z,15.60
2018-12-14T16:50:02.284Z,13.35
2018-12-14T16:52:29.520Z,14.80
2018-12-14T16:54:56.884Z,13.75
2018-12-14T16:57:24.134Z,11.97
2018-12-14T16:59:51.362Z,12.13
2018-12-14T17:02:18.604Z,12.58
2018-12-14T17:04:45.859Z,15.78
2018-12-14T17:07:13.326Z,14.15
2018-12-14T17:09:40.554Z,15.75
2018-12-14T17:12:07.788Z,15.70
2018-12-14T17:14:35.001Z,12.90
2018-12-14T17:17:02.363Z,13.45
2018-12-14T17:19:29.599Z,11.65
2018-12-14T17:21:56.824Z,12.13
2018-12-14T17:24:24.040Z,13.35
2018-12-14T17:26:51.269Z,14.35
2018-12-14T17:29:18.493Z,13.00
2018-12-14T17:31:45.737Z,11.73
2018-12-14T17:34:12.989Z,14.40
2018-12-14T17:36:40.311Z,12.50
2018-12-14T17:39:07.763Z,17.42
2018-12-14T17:41:35.106Z,12.85
2018-12-14T17:44:02.552Z,16.10
2018-12-14T17:46:29.908Z,14.83
2018-12-14T17:48:57.137Z,13.28
2018-12-14T17:51:24.379Z,14.90
2018-12-14T17:53:51.674Z,15.15
2018-12-14T17:56:18.871Z,14.50
2018-12-14T17:58:46.607Z,16.25
2018-12-14T18:01:14.028Z,12.50
2018-12-14T18:03:41.212Z,13.32
2018-12-14T18:06:08.429Z,15.25
2018-12-14T18:08:35.616Z,15.98
2018-12-14T18:11:02.911Z,14.53
2018-12-14T18:13:30.211Z,15.65
2018-12-14T18:15:57.404Z,16.73
2018-12-14T18:18:24.605Z,18.20
2018-12-14T18:20:51.792Z,15.58
2018-12-14T18:23:18.989Z,17.82
2018-12-14T18:25:46.179Z,20.15
2018-12-14T18:28:13.452Z,15.90
2018-12-14T18:30:40.664Z,16.97
2018-12-14T18:33:07.988Z,14.40
2018-12-14T18:35:35.216Z,14.50
2018-12-14T18:38:02.440Z,15.30
2018-12-14T18:40:29.660Z,16.12
2018-12-14T18:42:56.882Z,19.00
2018-12-14T18:45:24.100Z,16.60
2018-12-14T18:47:51.334Z,19.62
2018-12-14T18:50:18.551Z,21.00
2018-12-14T18:52:45.759Z,24.05
2018-12-14T18:55:12.956Z,25.88
2018-12-14T18:57:40.193Z,21.70
2018-12-14T19:00:09.350Z,21.87
2018-12-14T19:02:36.549Z,21.33
2018-12-14T19:05:04.672Z,18.82
2018-12-14T19:07:31.848Z,18.57
2018-12-14T19:09:59.168Z,20.75
2018-12-14T19:12:26.812Z,22.13
2018-12-14T19:14:57.328Z,21.35
2018-12-14T19:17:24.630Z,21.25
2018-12-14T19:19:51.856Z,19.65
2018-12-14T19:22:19.045Z,19.40
2018-12-14T19:24:46.263Z,19.48
2018-12-14T19:27:13.471Z,19.23
2018-12-14T19:29:41.081Z,21.30
2018-12-14T19:32:08.292Z,21.60
2018-12-14T19:34:35.633Z,21.33
2018-12-14T19:37:02.953Z,17.82
2018-12-14T19:39:30.158Z,17.25
2018-12-14T19:41:57.393Z,18.30
2018-12-14T19:44:24.911Z,19.85
2018-12-14T19:46:52.287Z,22.52
2018-12-14T19:49:19.637Z,19.73
2018-12-14T19:51:46.890Z,17.62
2018-12-14T19:54:14.529Z,19.87
2018-12-14T19:56:42.181Z,19.80
2018-12-14T19:59:09.404Z,16.50
2018-12-14T20:01:36.816Z,18.25
2018-12-14T20:04:04.064Z,18.35
2018-12-14T20:06:31.384Z,18.90
2018-12-14T20:08:58.629Z,16.85
2018-12-14T20:11:25.880Z,20.30
2018-12-14T20:13:53.328Z,19.30
2018-12-14T20:16:20.637Z,19.75
2018-12-14T20:18:47.917Z,21.40
2018-12-14T20:21:15.264Z,19.62
2018-12-14T20:23:42.554Z,17.85
2018-12-14T20:26:11.324Z,17.98
2018-12-14T20:28:38.764Z,18.42
2018-12-14T20:31:05.998Z,17.45
2018-12-14T20:33:33.225Z,19.57
2018-12-14T20:36:00.466Z,19.05
2018-12-14T20:38:27.808Z,19.42
2018-12-14T20:40:55.052Z,17.07
2018-12-14T20:43:22.268Z,17.45
2018-12-14T20:45:49.606Z,19.70
2018-12-14T20:48:16.959Z,18.85
2018-12-14T20:50:44.216Z,19.80
2018-12-14T20:53:11.439Z,18.35
2018-12-14T20:55:38.757Z,17.62
2018-12-14T20:58:05.971Z,18.75
2018-12-14T21:00:33.280Z,33.90
2018-12-14T21:03:00.517Z,29.60
2018-12-14T21:05:27.699Z,23.60
2018-12-14T21:07:54.941Z,22.40
2018-12-14T21:10:22.280Z,24.72
2018-12-14T21:12:49.493Z,24.77
2018-12-14T21:15:16.757Z,27.05
2018-12-14T21:17:43.985Z,31.50
2018-12-14T21:20:11.260Z,25.20
2018-12-14T21:22:38.471Z,24.30
2018-12-14T21:25:06.755Z,26.17
2018-12-14T21:27:33.947Z,38.55
2018-12-14T21:30:01.248Z,32.88
2018-12-14T21:32:28.469Z,21.00
2018-12-14T21:34:55.808Z,22.60
2018-12-14T21:37:23.064Z,21.02
2018-12-14T21:39:50.295Z,26.10
2018-12-14T21:42:17.628Z,26.45
2018-12-14T21:44:44.829Z,21.68
2018-12-14T21:47:12.103Z,25.60
2018-12-14T21:49:39.320Z,22.13
2018-12-14T21:52:06.871Z,23.30
2018-12-14T21:54:34.082Z,21.37
2018-12-14T21:57:01.309Z,19.23
2018-12-14T21:59:28.609Z,17.10
2018-12-14T22:01:55.849Z,17.95
2018-12-14T22:04:23.151Z,15.45
2018-12-14T22:06:50.407Z,16.60
2018-12-14T22:09:17.648Z,18.73
2018-12-14T22:11:44.877Z,18.12
2018-12-14T22:14:12.104Z,17.10
2018-12-14T22:16:39.590Z,18.32
2018-12-14T22:19:06.956Z,18.10
2018-12-14T22:21:34.173Z,16.93
2018-12-14T22:24:01.512Z,18.25
2018-12-14T22:26:28.958Z,23.60
2018-12-14T22:28:56.195Z,19.82
2018-12-14T22:31:23.481Z,17.23
2018-12-14T22:33:50.704Z,18.35
2018-12-14T22:36:17.977Z,18.00
2018-12-14T22:38:45.213Z,18.23
2018-12-14T22:41:12.547Z,17.17
2018-12-14T22:43:39.827Z,17.42
2018-12-14T22:46:07.036Z,16.80
2018-12-14T22:48:34.267Z,16.52
2018-12-14T22:51:01.457Z,17.92
2018-12-14T22:53:28.641Z,20.68
2018-12-14T22:55:55.820Z,18.27
2018-12-14T22:58:23.003Z,17.52
2018-12-14T23:00:52.693Z,15.90
2018-12-14T23:03:20.048Z,17.07
2018-12-14T23:05:47.876Z,18.25
2018-12-14T23:08:15.172Z,16.75
2018-12-14T23:10:42.493Z,16.70
2018-12-14T23:13:09.659Z,19.35
2018-12-14T23:15:37.020Z,20.37
2018-12-14T23:18:04.312Z,30.45
2018-12-14T23:20:31.688Z,23.40
2018-12-14T23:22:58.868Z,22.70
2018-12-14T23:25:26.101Z,17.25
2018-12-14T23:27:53.317Z,15.32
2018-12-14T23:30:20.499Z,17.55
2018-12-14T23:32:47.804Z,16.30
2018-12-14T23:35:15.003Z,17.60
2018-12-14T23:37:42.422Z,16.25
2018-12-14T23:40:09.896Z,15.13
2018-12-14T23:42:37.136Z,14.40
2018-12-14T23:45:05.052Z,14.55
2018-12-14T23:47:32.254Z,14.40
2018-12-14T23:49:59.492Z,13.22
2018-12-14T23:52:26.792Z,15.15
2018-12-14T23:54:54.009Z,14.73
2018-12-14T23:57:21.220Z,15.00
2018-12-14T23:59:48.493Z,16.02
